createdAt,value
2023-04-27T00:01:13.471Z,8.07
2023-04-27T00:03:41.308Z,7.82
2023-04-27T00:06:09.796Z,4.05
2023-04-27T00:08:37.326Z,8.13
2023-04-27T00:11:04.246Z,7.80
2023-04-27T00:13:30.885Z,5.20
2023-04-27T00:15:57.632Z,7.05
2023-04-27T00:18:24.304Z,3.28
2023-04-27T00:20:51.040Z,4.82
2023-04-27T00:23:17.743Z,6.13
2023-04-27T00:25:44.447Z,4.60
2023-04-27T00:28:11.178Z,3.97
2023-04-27T00:30:37.924Z,5.03
2023-04-27T00:33:04.625Z,5.25
2023-04-27T00:35:33.228Z,5.15
2023-04-27T00:38:00.012Z,6.85
2023-04-27T00:40:26.710Z,8.95
2023-04-27T00:42:53.416Z,6.00
2023-04-27T00:45:20.101Z,3.78
2023-04-27T00:47:46.965Z,8.13
2023-04-27T00:50:14.662Z,6.63
2023-04-27T00:52:41.839Z,6.43
2023-04-27T00:55:09.479Z,6.22
2023-04-27T00:57:36.206Z,7.22
2023-04-27T01:00:09.445Z,4.28
2023-04-27T01:02:37.015Z,9.20
2023-04-27T01:05:04.455Z,8.30
2023-04-27T01:07:31.253Z,4.55
2023-04-27T01:09:57.941Z,8.43
2023-04-27T01:12:24.665Z,5.40
2023-04-27T01:14:51.302Z,7.45
2023-04-27T01:17:18.310Z,4.45
2023-04-27T01:19:45.071Z,5.47
2023-04-27T01:22:11.810Z,11.23
2023-04-27T01:24:38.457Z,7.07
2023-04-27T01:27:05.235Z,7.32
2023-04-27T01:29:32.203Z,5.15
2023-04-27T01:31:58.920Z,5.30
2023-04-27T01:34:25.581Z,10.05
2023-04-27T01:36:52.294Z,7.40
2023-04-27T01:39:18.945Z,4.20
2023-04-27T01:41:45.627Z,8.63
2023-04-27T01:44:12.265Z,7.88
2023-04-27T01:46:39.028Z,4.60
2023-04-27T01:49:05.995Z,7.15
2023-04-27T01:51:32.909Z,11.50
2023-04-27T01:53:59.820Z,3.10
2023-04-27T01:56:26.599Z,4.93
2023-04-27T01:58:53.764Z,5.60
2023-04-27T02:01:21.136Z,5.93
2023-04-27T02:03:47.942Z,7.28
2023-04-27T02:06:14.780Z,4.03
2023-04-27T02:08:41.478Z,6.47
2023-04-27T02:11:08.336Z,7.45
2023-04-27T02:13:35.034Z,5.80
2023-04-27T02:16:05.261Z,3.63
2023-04-27T02:18:33.622Z,4.65
2023-04-27T02:21:00.716Z,4.15
2023-04-27T02:23:27.549Z,6.28
2023-04-27T02:25:54.206Z,6.80
2023-04-27T02:28:20.891Z,9.45
2023-04-27T02:30:48.020Z,7.78
2023-04-27T02:33:14.668Z,6.45
2023-04-27T02:35:41.312Z,6.78
2023-04-27T02:38:07.959Z,7.07
2023-04-27T02:40:34.643Z,8.73
2023-04-27T02:43:01.299Z,5.65
2023-04-27T02:45:29.733Z,8.75
2023-04-27T02:47:56.522Z,5.13
2023-04-27T02:50:23.287Z,8.88
2023-04-27T02:52:49.921Z,6.68
2023-04-27T02:55:17.185Z,5.38
2023-04-27T02:57:44.220Z,9.02
2023-04-27T03:00:11.870Z,7.47
2023-04-27T03:02:38.702Z,5.45
2023-04-27T03:05:05.948Z,8.25
2023-04-27T03:07:32.639Z,7.30
2023-04-27T03:09:59.708Z,7.68
2023-04-27T03:12:26.409Z,7.57
2023-04-27T03:14:53.128Z,7.50
2023-04-27T03:17:19.819Z,5.97
2023-04-27T03:19:49.086Z,7.28
2023-04-27T03:22:15.863Z,5.75
2023-04-27T03:24:42.946Z,9.80
2023-04-27T03:27:09.694Z,10.75
2023-04-27T03:29:36.337Z,7.20
2023-04-27T03:32:04.517Z,8.32
2023-04-27T03:34:31.685Z,10.02
2023-04-27T03:36:58.540Z,5.53
2023-04-27T03:39:25.194Z,8.52
2023-04-27T03:41:51.837Z,9.88
2023-04-27T03:44:18.527Z,6.82
2023-04-27T03:46:45.174Z,5.53
2023-04-27T03:49:12.156Z,5.82
2023-04-27T03:51:42.238Z,7.15
2023-04-27T03:54:09.970Z,7.78
2023-04-27T03:56:37.045Z,7.35
2023-04-27T03:59:04.988Z,3.67
2023-04-27T04:01:31.988Z,9.98
2023-04-27T04:03:58.970Z,5.43
2023-04-27T04:06:26.078Z,6.53
2023-04-27T04:08:52.754Z,8.15
2023-04-27T04:11:19.414Z,5.55
2023-04-27T04:13:46.152Z,5.43
2023-04-27T04:16:13.932Z,5.72
2023-04-27T04:18:40.884Z,7.22
2023-04-27T04:21:11.083Z,5.47
2023-04-27T04:23:38.136Z,5.88
2023-04-27T04:26:05.697Z,7.97
2023-04-27T04:28:32.460Z,7.55
2023-04-27T04:31:01.373Z,6.40
2023-04-27T04:33:28.133Z,7.55
2023-04-27T04:35:54.794Z,7.40
2023-04-27T04:38:21.474Z,6.50
2023-04-27T04:40:48.460Z,6.70
2023-04-27T04:43:15.186Z,5.45
2023-04-27T04:45:42.657Z,7.05
2023-04-27T04:48:10.271Z,6.45
2023-04-27T04:50:37.034Z,13.02
2023-04-27T04:53:03.706Z,8.10
2023-04-27T04:55:30.565Z,6.05
2023-04-27T04:57:57.316Z,7.25
2023-04-27T05:00:24.102Z,10.27
2023-04-27T05:02:51.745Z,9.82
2023-04-27T05:05:18.648Z,10.20
2023-04-27T05:07:45.527Z,6.78
2023-04-27T05:10:12.239Z,5.93
2023-04-27T05:12:38.954Z,9.93
2023-04-27T05:15:06.228Z,4.97
2023-04-27T05:17:32.940Z,6.55
2023-04-27T05:19:59.665Z,8.02
2023-04-27T05:22:26.319Z,6.82
2023-04-27T05:24:53.019Z,7.43
2023-04-27T05:27:19.716Z,10.85
2023-04-27T05:29:46.371Z,5.53
2023-04-27T05:32:12.996Z,10.52
2023-04-27T05:34:39.695Z,7.50
2023-04-27T05:37:07.230Z,5.68
2023-04-27T05:39:33.943Z,5.88
2023-04-27T05:42:00.602Z,9.48
2023-04-27T05:44:29.290Z,7.68
2023-04-27T05:46:56.412Z,7.18
2023-04-27T05:49:23.573Z,9.05
2023-04-27T05:51:50.440Z,7.38
2023-04-27T05:54:17.202Z,10.90
2023-04-27T05:56:44.430Z,11.68
2023-04-27T05:59:11.590Z,7.57
2023-04-27T06:01:38.852Z,11.40
2023-04-27T06:04:05.676Z,7.63
2023-04-27T06:06:33.192Z,6.75
2023-04-27T06:08:59.920Z,6.97
2023-04-27T06:11:26.756Z,7.32
2023-04-27T06:13:53.425Z,8.57
2023-04-27T06:16:21.206Z,7.72
2023-04-27T06:18:52.238Z,9.45
2023-04-27T06:21:18.923Z,9.32
2023-04-27T06:23:45.655Z,10.57
2023-04-27T06:26:12.359Z,12.73
2023-04-27T06:28:39.141Z,10.45
2023-04-27T06:31:06.309Z,9.38
2023-04-27T06:33:33.453Z,7.97
2023-04-27T06:36:01.433Z,6.22
2023-04-27T06:38:28.401Z,9.88
2023-04-27T06:40:55.203Z,11.95
2023-04-27T06:43:22.264Z,9.98
2023-04-27T06:45:48.997Z,9.43
2023-04-27T06:48:16.087Z,6.82
2023-04-27T06:50:43.555Z,6.38
2023-04-27T06:53:10.787Z,9.65
2023-04-27T06:55:37.448Z,6.43
2023-04-27T06:58:04.418Z,15.38
2023-04-27T07:00:31.865Z,8.27
2023-04-27T07:02:58.707Z,6.93
2023-04-27T07:05:26.023Z,6.88
2023-04-27T07:07:52.765Z,10.48
2023-04-27T07:10:19.504Z,6.07
2023-04-27T07:12:46.586Z,12.57
2023-04-27T07:15:13.489Z,7.20
2023-04-27T07:17:40.178Z,10.32
2023-04-27T07:20:08.599Z,6.75
2023-04-27T07:22:35.298Z,10.82
2023-04-27T07:25:02.021Z,5.47
2023-04-27T07:27:28.964Z,6.65
2023-04-27T07:29:55.614Z,11.10
2023-04-27T07:32:22.814Z,11.60
2023-04-27T07:34:53.906Z,8.20
2023-04-27T07:37:21.380Z,8.20
2023-04-27T07:39:50.268Z,7.93
2023-04-27T07:42:17.016Z,7.35
2023-04-27T07:44:43.756Z,6.63
2023-04-27T07:47:10.744Z,8.00
2023-04-27T07:49:38.318Z,5.88
2023-04-27T07:52:05.356Z,7.70
2023-04-27T07:54:32.052Z,5.28
2023-04-27T07:56:58.799Z,9.32
2023-04-27T07:59:28.456Z,7.30
2023-04-27T08:02:04.026Z,6.35
2023-04-27T08:04:38.249Z,6.78
2023-04-27T08:07:06.150Z,11.60
2023-04-27T08:09:34.654Z,11.15
2023-04-27T08:12:03.016Z,9.60
2023-04-27T08:14:29.753Z,12.35
2023-04-27T08:16:56.664Z,10.30
2023-04-27T08:19:23.397Z,8.98
2023-04-27T08:21:50.092Z,4.85
2023-04-27T08:24:16.785Z,12.38
2023-04-27T08:26:43.570Z,4.70
2023-04-27T08:29:19.898Z,5.72
2023-04-27T08:31:55.668Z,4.78
2023-04-27T08:34:23.294Z,8.93
2023-04-27T08:36:50.019Z,5.65
2023-04-27T08:39:17.973Z,7.60
2023-04-27T08:41:44.804Z,9.55
2023-04-27T08:44:11.774Z,8.48
2023-04-27T08:46:38.822Z,6.30
2023-04-27T08:49:07.177Z,8.60
2023-04-27T08:51:34.103Z,7.65
2023-04-27T08:54:00.830Z,6.88
2023-04-27T08:56:28.812Z,4.65
2023-04-27T08:58:57.244Z,5.70
2023-04-27T09:01:25.311Z,4.43
2023-04-27T09:04:02.303Z,6.40
2023-04-27T09:06:33.511Z,5.25
2023-04-27T09:09:01.531Z,6.60
2023-04-27T09:11:33.920Z,4.90
2023-04-27T09:14:02.667Z,9.73
2023-04-27T09:16:30.666Z,8.35
2023-04-27T09:18:58.333Z,8.20
2023-04-27T09:21:26.631Z,6.10
2023-04-27T09:23:54.488Z,7.95
2023-04-27T09:26:23.323Z,6.85
2023-04-27T09:28:52.178Z,9.70
2023-04-27T09:31:19.391Z,6.90
2023-04-27T09:33:47.532Z,6.82
2023-04-27T09:36:15.135Z,7.38
2023-04-27T09:38:42.525Z,10.07
2023-04-27T09:41:09.369Z,8.70
2023-04-27T09:43:37.162Z,7.28
2023-04-27T09:46:04.616Z,4.97
2023-04-27T09:48:31.661Z,5.65
2023-04-27T09:50:58.331Z,7.18
2023-04-27T09:53:30.595Z,7.22
2023-04-27T09:55:57.320Z,8.00
2023-04-27T09:58:50.464Z,10.82
2023-04-27T10:01:26.395Z,5.85
2023-04-27T10:04:20.653Z,7.25
2023-04-27T10:07:04.890Z,9.15
2023-04-27T10:09:42.892Z,6.97
2023-04-27T10:12:23.118Z,5.72
2023-04-27T10:14:54.364Z,4.32
2023-04-27T10:17:30.444Z,5.20
2023-04-27T10:22:42.241Z,7.63
2023-04-27T10:25:19.272Z,7.93
2023-04-27T10:28:04.710Z,7.97
2023-04-27T10:30:36.384Z,6.60
2023-04-27T10:33:11.806Z,6.20
2023-04-27T10:35:43.475Z,6.88
2023-04-27T10:38:24.522Z,7.95
2023-04-27T10:40:57.095Z,4.57
2023-04-27T10:43:28.717Z,6.57
2023-04-27T10:46:06.679Z,9.07
2023-04-27T10:48:33.399Z,5.18
2023-04-27T10:51:02.772Z,5.43
2023-04-27T10:53:37.582Z,5.93
2023-04-27T10:56:07.071Z,4.78
2023-04-27T11:01:08.966Z,4.78
2023-04-27T11:03:39.152Z,4.85
2023-04-27T11:06:06.399Z,6.13
2023-04-27T11:08:36.413Z,5.78
2023-04-27T11:11:03.804Z,8.00
2023-04-27T11:13:32.767Z,4.97
2023-04-27T11:16:00.338Z,8.25
2023-04-27T11:18:30.563Z,8.60
2023-04-27T11:21:15.308Z,6.40
2023-04-27T11:23:42.798Z,7.50
2023-04-27T11:26:20.197Z,8.93
2023-04-27T11:29:10.038Z,10.68
2023-04-27T11:31:51.585Z,8.27
2023-04-27T11:34:23.204Z,3.70
2023-04-27T11:37:16.708Z,4.85
2023-04-27T11:39:45.748Z,7.78
2023-04-27T11:42:19.442Z,5.65
2023-04-27T11:45:13.145Z,5.45
2023-04-27T11:47:42.443Z,9.45
2023-04-27T11:50:09.705Z,6.25
2023-04-27T11:52:38.991Z,7.43
2023-04-27T11:55:07.126Z,6.88
2023-04-27T11:57:35.884Z,5.65
2023-04-27T12:00:10.759Z,6.13
2023-04-27T12:02:38.215Z,6.47
2023-04-27T12:05:06.229Z,11.20
2023-04-27T12:07:34.454Z,7.22
2023-04-27T12:10:01.446Z,7.25
2023-04-27T12:12:28.241Z,7.50
2023-04-27T12:14:55.115Z,5.88
2023-04-27T12:17:21.791Z,7.47
2023-04-27T12:19:48.935Z,7.10
2023-04-27T12:22:17.987Z,8.00
2023-04-27T12:24:44.630Z,6.45
2023-04-27T12:27:12.063Z,9.18
2023-04-27T12:29:39.094Z,7.72
2023-04-27T12:32:06.129Z,6.90
2023-04-27T12:34:33.178Z,6.13
2023-04-27T12:36:59.857Z,6.85
2023-04-27T12:39:26.900Z,9.10
2023-04-27T12:41:54.381Z,6.78
2023-04-27T12:44:21.830Z,7.00
2023-04-27T12:46:49.031Z,5.60
2023-04-27T12:49:16.799Z,6.85
2023-04-27T12:52:01.642Z,12.57
2023-04-27T12:54:28.441Z,7.40
2023-04-27T12:56:55.134Z,5.53
2023-04-27T12:59:21.821Z,13.55
2023-04-27T13:01:48.654Z,5.70
2023-04-27T13:04:20.783Z,5.90
2023-04-27T13:06:48.246Z,12.05
2023-04-27T13:09:15.551Z,7.65
2023-04-27T13:11:42.598Z,10.43
2023-04-27T13:14:12.496Z,5.00
2023-04-27T13:16:40.104Z,6.65
2023-04-27T13:19:06.925Z,6.72
2023-04-27T13:21:33.932Z,8.77
2023-04-27T13:24:00.940Z,5.32
2023-04-27T13:26:27.694Z,8.60
2023-04-27T13:28:54.436Z,4.78
2023-04-27T13:31:21.166Z,6.45
2023-04-27T13:33:48.035Z,6.28
2023-04-27T13:36:14.846Z,6.78
2023-04-27T13:38:41.671Z,7.22
2023-04-27T13:41:08.770Z,7.13
2023-04-27T13:43:35.707Z,8.77
2023-04-27T13:46:02.825Z,7.28
2023-04-27T13:48:30.417Z,7.35
2023-04-27T13:50:57.836Z,5.43
2023-04-27T13:53:27.489Z,7.65
2023-04-27T13:55:55.747Z,11.00
2023-04-27T13:58:25.614Z,6.35
2023-04-27T14:00:53.247Z,5.45
2023-04-27T14:03:20.706Z,6.78
2023-04-27T14:05:48.938Z,5.53
2023-04-27T14:08:15.904Z,6.78
2023-04-27T14:10:43.044Z,9.43
2023-04-27T14:13:09.879Z,8.82
2023-04-27T14:15:37.397Z,6.32
2023-04-27T14:18:06.002Z,5.65
2023-04-27T14:20:33.547Z,7.22
2023-04-27T14:23:01.171Z,5.53
2023-04-27T14:25:32.558Z,7.72
2023-04-27T14:28:04.446Z,7.50
2023-04-27T14:30:34.830Z,8.18
2023-04-27T14:33:02.234Z,4.57
2023-04-27T14:35:28.978Z,9.05
2023-04-27T14:37:57.137Z,5.97
2023-04-27T14:40:23.980Z,7.45
2023-04-27T14:42:50.676Z,5.78
2023-04-27T14:45:18.738Z,5.55
2023-04-27T14:47:45.630Z,6.35
2023-04-27T14:50:12.397Z,4.80
2023-04-27T14:52:39.260Z,6.65
2023-04-27T14:55:07.047Z,7.45
2023-04-27T14:57:33.836Z,8.73
2023-04-27T15:00:00.899Z,5.65
2023-04-27T15:02:27.714Z,5.65
2023-04-27T15:04:54.492Z,5.22
2023-04-27T15:07:21.414Z,6.97
2023-04-27T15:09:48.237Z,5.50
2023-04-27T15:12:14.900Z,6.40
2023-04-27T15:14:41.607Z,4.53
2023-04-27T15:17:08.321Z,9.50
2023-04-27T15:19:35.646Z,5.65
2023-04-27T15:22:02.352Z,5.70
2023-04-27T15:24:29.142Z,5.72
2023-04-27T15:26:55.816Z,7.05
2023-04-27T15:29:22.557Z,13.13
2023-04-27T15:31:49.276Z,4.55
2023-04-27T15:34:16.079Z,6.00
2023-04-27T15:36:42.766Z,5.45
2023-04-27T15:39:10.281Z,7.60
2023-04-27T15:41:37.301Z,6.38
2023-04-27T15:44:06.400Z,7.07
2023-04-27T15:46:33.270Z,7.13
2023-04-27T15:49:00.184Z,10.40
2023-04-27T15:51:26.853Z,6.78
2023-04-27T15:53:53.542Z,6.88
2023-04-27T15:56:20.295Z,9.07
2023-04-27T15:58:47.002Z,5.03
2023-04-27T16:01:13.768Z,4.60
2023-04-27T16:03:40.784Z,9.60
2023-04-27T16:06:07.878Z,3.75
2023-04-27T16:08:34.626Z,8.63
2023-04-27T16:11:01.391Z,4.25
2023-04-27T16:13:28.752Z,7.15
2023-04-27T16:15:55.879Z,6.35
2023-04-27T16:18:22.542Z,8.75
2023-04-27T16:20:49.204Z,4.50
2023-04-27T16:23:17.006Z,4.15
2023-04-27T16:25:43.749Z,9.75
2023-04-27T16:28:10.471Z,3.35
2023-04-27T16:30:38.154Z,6.28
2023-04-27T16:33:04.912Z,8.50
2023-04-27T16:35:33.476Z,7.95
2023-04-27T16:38:00.322Z,6.50
2023-04-27T16:40:27.062Z,5.90
2023-04-27T16:42:53.813Z,5.28
2023-04-27T16:45:20.560Z,5.85
2023-04-27T16:47:47.571Z,7.25
2023-04-27T16:50:14.638Z,4.65
2023-04-27T16:52:41.371Z,6.45
2023-04-27T16:55:09.011Z,3.28
2023-04-27T16:57:35.861Z,5.65
2023-04-27T17:00:02.777Z,6.60
2023-04-27T17:02:29.597Z,9.48
2023-04-27T17:04:56.790Z,4.78
2023-04-27T17:07:23.572Z,9.45
2023-04-27T17:09:50.209Z,7.45
2023-04-27T17:12:17.246Z,3.88
2023-04-27T17:14:44.037Z,7.97
2023-04-27T17:17:11.071Z,4.43
2023-04-27T17:19:38.973Z,3.83
2023-04-27T17:22:08.000Z,6.25
2023-04-27T17:24:34.638Z,3.40
2023-04-27T17:27:01.670Z,7.97
2023-04-27T17:29:28.325Z,5.22
2023-04-27T17:31:54.967Z,3.25
2023-04-27T17:34:21.713Z,4.15
2023-04-27T17:36:48.460Z,6.43
2023-04-27T17:39:15.302Z,7.78
2023-04-27T17:41:42.288Z,6.43
2023-04-27T17:44:09.023Z,4.60
2023-04-27T17:46:37.289Z,7.00
2023-04-27T17:49:04.091Z,9.65
2023-04-27T17:51:33.502Z,11.82
2023-04-27T17:54:00.168Z,4.57
2023-04-27T17:56:26.804Z,10.20
2023-04-27T17:58:53.457Z,10.30
2023-04-27T18:01:20.160Z,19.45
2023-04-27T18:03:48.832Z,9.15
2023-04-27T18:06:15.908Z,14.25
2023-04-27T18:08:42.559Z,10.50
2023-04-27T18:11:09.224Z,7.10
2023-04-27T18:13:35.959Z,8.25
2023-04-27T18:16:02.744Z,8.48
2023-04-27T18:18:29.410Z,6.85
2023-04-27T18:20:56.115Z,13.00
2023-04-27T18:23:22.791Z,12.23
2023-04-27T18:25:49.826Z,10.57
2023-04-27T18:28:16.644Z,7.50
2023-04-27T18:30:43.355Z,13.05
2023-04-27T18:33:10.213Z,6.53
2023-04-27T18:35:37.170Z,9.80
2023-04-27T18:38:03.798Z,14.43
2023-04-27T18:40:31.554Z,9.23
2023-04-27T18:42:58.209Z,6.95
2023-04-27T18:45:24.869Z,7.80
2023-04-27T18:47:51.648Z,12.95
2023-04-27T18:50:19.077Z,12.57
2023-04-27T18:52:46.451Z,9.85
2023-04-27T18:55:17.706Z,12.52
2023-04-27T18:57:44.990Z,10.15
2023-04-27T19:00:12.931Z,9.75
2023-04-27T19:02:39.881Z,9.43
2023-04-27T19:05:12.910Z,8.60
2023-04-27T19:07:40.817Z,9.13
2023-04-27T19:10:08.438Z,7.97
2023-04-27T19:12:35.811Z,16.40
2023-04-27T19:15:02.756Z,6.80
2023-04-27T19:17:29.531Z,13.82
2023-04-27T19:19:56.529Z,14.25
2023-04-27T19:22:23.217Z,15.65
2023-04-27T19:24:49.916Z,14.55
2023-04-27T19:27:16.575Z,22.13
2023-04-27T19:29:54.492Z,25.33
2023-04-27T19:32:21.925Z,24.88
2023-04-27T19:34:48.759Z,19.67
2023-04-27T19:37:15.998Z,17.35
2023-04-27T19:39:42.678Z,20.70
2023-04-27T19:42:09.431Z,25.65
2023-04-27T19:44:36.212Z,24.08
2023-04-27T19:47:02.941Z,16.95
2023-04-27T19:49:33.135Z,16.35
2023-04-27T19:52:00.504Z,16.63
2023-04-27T19:54:27.300Z,9.45
2023-04-27T19:56:54.793Z,24.90
2023-04-27T19:59:21.857Z,13.18
2023-04-27T20:01:49.197Z,19.17
2023-04-27T20:04:17.865Z,21.02
2023-04-27T20:06:45.113Z,19.40
2023-04-27T20:09:11.793Z,14.70
2023-04-27T20:11:38.665Z,13.98
2023-04-27T20:14:05.511Z,16.77
2023-04-27T20:16:32.159Z,23.55
2023-04-27T20:18:58.826Z,13.10
2023-04-27T20:21:26.247Z,17.00
2023-04-27T20:23:52.923Z,18.92
2023-04-27T20:26:19.593Z,25.17
2023-04-27T20:28:46.992Z,16.02
2023-04-27T20:31:13.788Z,10.88
2023-04-27T20:33:40.585Z,13.52
2023-04-27T20:36:17.429Z,6.50
2023-04-27T20:38:45.703Z,10.55
2023-04-27T20:41:12.523Z,9.32
2023-04-27T20:43:39.891Z,10.32
2023-04-27T20:46:07.950Z,9.90
2023-04-27T20:48:34.773Z,13.13
2023-04-27T20:51:01.980Z,11.93
2023-04-27T20:53:28.720Z,10.05
2023-04-27T20:55:55.476Z,11.10
2023-04-27T20:58:22.520Z,11.52
2023-04-27T21:00:49.426Z,10.07
2023-04-27T21:03:16.610Z,9.90
2023-04-27T21:05:43.990Z,14.85
2023-04-27T21:08:10.828Z,10.43
2023-04-27T21:10:37.624Z,11.85
2023-04-27T21:13:04.370Z,11.00
2023-04-27T21:15:31.181Z,12.10
2023-04-27T21:17:57.879Z,12.00
2023-04-27T21:20:24.604Z,20.40
2023-04-27T21:22:51.254Z,23.38
2023-04-27T21:25:18.425Z,17.08
2023-04-27T21:27:45.485Z,18.90
2023-04-27T21:30:14.976Z,18.02
2023-04-27T21:32:44.121Z,13.43
2023-04-27T21:35:11.036Z,12.10
2023-04-27T21:37:37.814Z,9.60
2023-04-27T21:40:05.162Z,9.27
2023-04-27T21:42:32.130Z,14.77
2023-04-27T21:44:58.863Z,17.90
2023-04-27T21:47:25.551Z,13.23
2023-04-27T21:49:52.662Z,15.23
2023-04-27T21:52:21.385Z,14.15
2023-04-27T21:54:48.397Z,14.57
2023-04-27T21:57:15.121Z,12.15
2023-04-27T21:59:41.781Z,12.68
2023-04-27T22:02:08.642Z,12.15
2023-04-27T22:04:38.117Z,9.35
2023-04-27T22:07:07.770Z,8.05
2023-04-27T22:09:35.626Z,6.28
2023-04-27T22:12:05.697Z,9.93
2023-04-27T22:14:32.436Z,7.10
2023-04-27T22:17:00.590Z,8.90
2023-04-27T22:19:28.541Z,9.00
2023-04-27T22:21:55.409Z,7.65
2023-04-27T22:24:22.249Z,9.10
2023-04-27T22:26:48.941Z,6.65
2023-04-27T22:29:16.470Z,10.80
2023-04-27T22:31:43.894Z,9.27
2023-04-27T22:34:12.643Z,6.43
2023-04-27T22:36:39.414Z,9.32
2023-04-27T22:39:07.084Z,10.15
2023-04-27T22:41:33.962Z,6.30
2023-04-27T22:44:00.886Z,6.95
2023-04-27T22:46:27.784Z,8.35
2023-04-27T22:48:54.475Z,8.00
2023-04-27T22:51:21.656Z,8.38
2023-04-27T22:53:48.804Z,8.07
2023-04-27T22:56:15.489Z,8.32
2023-04-27T22:58:42.385Z,9.10
2023-04-27T23:01:09.111Z,7.97
2023-04-27T23:03:35.965Z,10.20
2023-04-27T23:06:03.001Z,9.63
2023-04-27T23:08:29.888Z,7.13
2023-04-27T23:10:56.853Z,9.63
2023-04-27T23:13:29.283Z,7.68
2023-04-27T23:15:56.013Z,5.93
2023-04-27T23:18:22.656Z,7.93
2023-04-27T23:20:54.532Z,13.80
2023-04-27T23:23:21.449Z,7.13
2023-04-27T23:25:48.121Z,12.05
2023-04-27T23:28:14.894Z,10.85
2023-04-27T23:30:41.582Z,8.65
2023-04-27T23:33:08.358Z,7.93
2023-04-27T23:35:34.983Z,14.18
2023-04-27T23:38:01.705Z,13.15
2023-04-27T23:40:28.363Z,10.07
2023-04-27T23:42:55.752Z,7.72
2023-04-27T23:45:22.415Z,10.98
2023-04-27T23:47:49.089Z,11.25
2023-04-27T23:50:15.909Z,7.65
2023-04-27T23:52:42.585Z,12.55
2023-04-27T23:55:10.147Z,10.00
2023-04-27T23:57:39.926Z,8.63
